createdAt,value
2023-04-11T00:00:38.897Z,9.90
2023-04-11T00:03:07.204Z,9.90
2023-04-11T00:05:35.266Z,9.80
2023-04-11T00:08:03.157Z,9.90
2023-04-11T00:10:32.987Z,9.80
2023-04-11T00:13:00.834Z,9.90
2023-04-11T00:15:28.794Z,9.80
2023-04-11T00:17:58.390Z,9.70
2023-04-11T00:20:26.276Z,9.80
2023-04-11T00:22:54.851Z,9.80
2023-04-11T00:25:22.767Z,9.90
2023-04-11T00:27:51.879Z,9.80
2023-04-11T00:30:19.776Z,10.20
2023-04-11T00:32:47.825Z,9.70
2023-04-11T00:35:15.967Z,9.80
2023-04-11T00:37:45.160Z,9.80
2023-04-11T00:40:14.163Z,9.70
2023-04-11T00:42:42.083Z,9.80
2023-04-11T00:45:12.555Z,9.80
2023-04-11T00:47:40.651Z,9.70
2023-04-11T00:50:09.656Z,9.70
2023-04-11T00:52:39.335Z,9.70
2023-04-11T00:55:08.378Z,9.80
2023-04-11T00:57:36.472Z,9.70
2023-04-11T01:00:04.780Z,9.70
2023-04-11T01:02:33.963Z,9.60
2023-04-11T01:05:02.125Z,9.70
2023-04-11T01:07:32.010Z,9.70
2023-04-11T01:10:01.265Z,9.70
2023-04-11T01:12:30.376Z,9.80
2023-04-11T01:14:58.637Z,9.80
2023-04-11T01:17:27.113Z,9.70
2023-04-11T01:19:56.330Z,9.70
2023-04-11T01:22:25.388Z,9.70
2023-04-11T01:24:54.690Z,9.80
2023-04-11T01:27:22.498Z,9.80
2023-04-11T01:29:50.962Z,9.70
2023-04-11T01:32:18.840Z,9.60
2023-04-11T01:34:49.149Z,9.60
2023-04-11T01:37:17.460Z,9.60
2023-04-11T01:39:45.374Z,9.70
2023-04-11T01:42:15.216Z,9.70
2023-04-11T01:44:43.393Z,9.70
2023-04-11T01:47:11.536Z,9.70
2023-04-11T01:49:39.384Z,9.70
2023-04-11T01:52:08.856Z,9.60
2023-04-11T01:54:36.646Z,9.70
2023-04-11T01:57:05.149Z,9.70
2023-04-11T01:59:34.449Z,9.70
2023-04-11T02:02:02.342Z,9.70
2023-04-11T02:04:30.412Z,9.70
2023-04-11T02:06:58.246Z,9.70
2023-04-11T02:09:26.193Z,9.70
2023-04-11T02:11:54.062Z,9.80
2023-04-11T02:14:22.028Z,9.80
2023-04-11T02:16:56.060Z,9.70
2023-04-11T02:19:25.914Z,9.70
2023-04-11T02:21:53.777Z,9.80
2023-04-11T02:24:21.610Z,9.80
2023-04-11T02:26:49.473Z,9.80
2023-04-11T02:29:17.383Z,10.00
2023-04-11T02:31:45.283Z,10.00
2023-04-11T02:34:15.768Z,9.90
2023-04-11T02:36:43.827Z,10.00
2023-04-11T02:39:11.692Z,10.00
2023-04-11T02:41:40.247Z,10.00
2023-04-11T02:44:08.378Z,10.00
2023-04-11T02:46:36.296Z,10.10
2023-04-11T02:49:04.586Z,10.10
2023-04-11T02:51:33.794Z,10.10
2023-04-11T02:54:01.689Z,10.20
2023-04-11T02:56:30.750Z,10.10
2023-04-11T02:58:58.992Z,10.00
2023-04-11T03:01:27.054Z,10.10
2023-04-11T03:03:54.973Z,10.10
2023-04-11T03:06:23.224Z,10.00
2023-04-11T03:08:52.950Z,10.10
2023-04-11T03:11:20.864Z,10.10
2023-04-11T03:13:48.711Z,10.10
2023-04-11T03:16:16.540Z,10.00
2023-04-11T03:18:44.407Z,10.10
2023-04-11T03:21:12.418Z,10.10
2023-04-11T03:23:40.369Z,10.10
2023-04-11T03:26:09.671Z,10.10
2023-04-11T03:28:37.457Z,10.10
2023-04-11T03:31:05.590Z,10.10
2023-04-11T03:33:33.421Z,10.20
2023-04-11T03:36:01.406Z,10.10
2023-04-11T03:38:29.196Z,10.10
2023-04-11T03:40:57.010Z,10.10
2023-04-11T03:43:26.151Z,10.10
2023-04-11T03:45:53.948Z,10.20
2023-04-11T03:48:21.763Z,10.20
2023-04-11T03:50:49.572Z,10.30
2023-04-11T03:53:17.351Z,10.20
2023-04-11T03:55:45.186Z,10.20
2023-04-11T03:58:12.970Z,10.80
2023-04-11T04:00:42.082Z,10.20
2023-04-11T04:03:09.971Z,10.20
2023-04-11T04:05:38.279Z,10.20
2023-04-11T04:08:06.765Z,10.30
2023-04-11T04:10:34.559Z,10.30
2023-04-11T04:13:02.397Z,10.20
2023-04-11T04:15:30.606Z,10.20
2023-04-11T04:17:59.888Z,10.20
2023-04-11T04:20:27.837Z,10.20
2023-04-11T04:22:55.711Z,10.30
2023-04-11T04:25:25.913Z,10.20
2023-04-11T04:27:58.068Z,10.20
2023-04-11T04:30:28.969Z,10.20
2023-04-11T04:32:58.898Z,10.20
2023-04-11T04:35:28.423Z,10.20
2023-04-11T04:37:56.251Z,10.20
2023-04-11T04:40:24.041Z,10.20
2023-04-11T04:42:58.286Z,10.20
2023-04-11T04:45:26.643Z,10.30
2023-04-11T04:47:54.508Z,10.30
2023-04-11T04:50:22.432Z,10.30
2023-04-11T04:52:51.490Z,10.30
2023-04-11T04:55:19.275Z,10.40
2023-04-11T04:57:47.249Z,10.40
2023-04-11T05:00:15.393Z,10.40
2023-04-11T05:02:43.349Z,10.40
2023-04-11T05:05:12.297Z,10.40
2023-04-11T05:07:40.747Z,10.50
2023-04-11T05:10:10.803Z,10.40
2023-04-11T05:12:38.892Z,10.50
2023-04-11T05:15:11.340Z,10.40
2023-04-11T05:17:39.327Z,10.40
2023-04-11T05:20:09.036Z,10.40
2023-04-11T05:22:37.816Z,10.40
2023-04-11T05:25:08.761Z,10.40
2023-04-11T05:27:37.945Z,10.40
2023-04-11T05:30:06.866Z,10.40
2023-04-11T05:32:34.708Z,10.40
2023-04-11T05:35:02.782Z,10.40
2023-04-11T05:37:31.131Z,10.30
2023-04-11T05:39:59.882Z,10.30
2023-04-11T05:42:27.654Z,10.40
2023-04-11T05:44:56.822Z,10.40
2023-04-11T05:47:24.891Z,10.40
2023-04-11T05:49:52.729Z,10.40
2023-04-11T05:52:20.559Z,10.40
2023-04-11T05:54:48.321Z,10.40
2023-04-11T05:57:17.402Z,10.40
2023-04-11T05:59:49.594Z,10.30
2023-04-11T06:02:18.805Z,10.30
2023-04-11T06:04:46.979Z,10.30
2023-04-11T06:07:15.043Z,10.30
2023-04-11T06:09:42.907Z,10.30
2023-04-11T06:12:11.526Z,10.30
2023-04-11T06:14:40.640Z,10.30
2023-04-11T06:17:09.442Z,10.30
2023-04-11T06:19:38.690Z,10.30
2023-04-11T06:22:06.751Z,10.30
2023-04-11T06:24:38.711Z,10.30
2023-04-11T06:27:09.823Z,10.30
2023-04-11T06:29:37.851Z,10.30
2023-04-11T06:32:06.081Z,10.40
2023-04-11T06:34:34.044Z,10.40
2023-04-11T06:37:03.164Z,10.30
2023-04-11T06:39:31.194Z,10.30
2023-04-11T06:41:59.197Z,10.30
2023-04-11T06:44:27.233Z,10.30
2023-04-11T06:46:55.764Z,10.20
2023-04-11T06:49:24.032Z,10.20
2023-04-11T06:51:51.980Z,10.20
2023-04-11T06:54:21.479Z,10.20
2023-04-11T06:56:50.555Z,10.20
2023-04-11T06:59:20.399Z,10.20
2023-04-11T07:01:48.619Z,10.20
2023-04-11T07:04:17.263Z,10.20
2023-04-11T07:06:45.742Z,10.20
2023-04-11T07:09:13.520Z,10.20
2023-04-11T07:11:42.655Z,10.20
2023-04-11T07:14:10.401Z,10.20
2023-04-11T07:16:38.786Z,10.20
2023-04-11T07:19:06.662Z,10.20
2023-04-11T07:21:34.732Z,10.20
2023-04-11T07:24:02.980Z,10.10
2023-04-11T07:26:32.511Z,10.10
2023-04-11T07:29:01.896Z,10.10
2023-04-11T07:31:29.752Z,10.10
2023-04-11T07:33:58.013Z,10.10
2023-04-11T07:36:26.585Z,10.00
2023-04-11T07:38:54.412Z,10.00
2023-04-11T07:41:22.210Z,9.90
2023-04-11T07:43:50.106Z,9.90
2023-04-11T07:46:19.295Z,10.00
2023-04-11T07:48:47.082Z,10.00
2023-04-11T07:51:14.885Z,9.90
2023-04-11T07:53:42.687Z,9.90
2023-04-11T07:56:11.224Z,9.90
2023-04-11T07:58:39.032Z,9.80
2023-04-11T08:01:09.028Z,10.00
2023-04-11T08:03:38.976Z,9.90
2023-04-11T08:06:07.478Z,10.00
2023-04-11T08:08:35.243Z,9.90
2023-04-11T08:11:02.987Z,9.90
2023-04-11T08:13:30.720Z,10.00
2023-04-11T08:15:58.567Z,9.70
2023-04-11T08:18:26.389Z,9.90
2023-04-11T08:20:55.866Z,9.60
2023-04-11T08:23:23.816Z,9.90
2023-04-11T08:25:51.616Z,9.90
2023-04-11T08:28:19.359Z,9.80
2023-04-11T08:30:47.125Z,9.90
2023-04-11T08:33:15.677Z,10.00
2023-04-11T08:35:43.471Z,10.00
2023-04-11T08:38:12.739Z,9.90
2023-04-11T08:40:40.650Z,10.00
2023-04-11T08:43:12.278Z,10.00
2023-04-11T08:45:40.921Z,10.10
2023-04-11T08:48:08.915Z,10.10
2023-04-11T08:50:36.854Z,10.10
2023-04-11T08:53:05.057Z,10.10
2023-04-11T08:55:34.229Z,10.00
2023-04-11T08:58:02.931Z,10.10
2023-04-11T09:00:32.316Z,10.10
2023-04-11T09:03:02.057Z,10.10
2023-04-11T09:05:31.552Z,10.00
2023-04-11T09:08:00.693Z,10.10
2023-04-11T09:10:28.977Z,10.00
2023-04-11T09:13:14.278Z,9.90
2023-04-11T09:15:42.163Z,10.10
2023-04-11T09:18:10.168Z,10.10
2023-04-11T09:20:38.096Z,10.20
2023-04-11T09:23:05.875Z,10.10
2023-04-11T09:25:44.989Z,10.10
2023-04-11T09:28:14.295Z,10.20
2023-04-11T09:30:50.409Z,10.10
2023-04-11T09:33:23.681Z,10.10
2023-04-11T09:35:53.987Z,10.10
2023-04-11T09:38:32.510Z,10.10
2023-04-11T09:41:01.494Z,10.10
2023-04-11T09:43:50.322Z,10.10
2023-04-11T09:46:18.583Z,10.10
2023-04-11T09:48:47.170Z,10.10
2023-04-11T09:51:28.038Z,10.10
2023-04-11T09:54:03.298Z,10.10
2023-04-11T09:56:33.848Z,10.10
2023-04-11T09:59:04.642Z,10.10
2023-04-11T10:01:32.801Z,10.20
2023-04-11T10:04:01.756Z,10.20
2023-04-11T10:06:33.853Z,10.10
2023-04-11T10:09:08.544Z,10.10
2023-04-11T10:11:36.865Z,10.10
2023-04-11T10:14:06.113Z,10.20
2023-04-11T10:16:34.364Z,10.20
2023-04-11T10:19:24.648Z,10.30
2023-04-11T10:21:52.570Z,10.30
2023-04-11T10:24:21.591Z,10.30
2023-04-11T10:26:51.374Z,10.30
2023-04-11T10:29:54.876Z,10.30
2023-04-11T10:32:26.151Z,10.20
2023-04-11T10:35:33.557Z,10.20
2023-04-11T10:38:01.482Z,10.30
2023-04-11T10:40:29.374Z,10.50
2023-04-11T10:42:57.422Z,10.50
2023-04-11T10:45:28.308Z,10.60
2023-04-11T10:48:11.627Z,10.60
2023-04-11T10:50:42.188Z,10.70
2023-04-11T10:53:33.902Z,10.80
2023-04-11T10:56:02.244Z,10.90
2023-04-11T10:58:37.757Z,11.00
2023-04-11T11:01:31.519Z,11.00
2023-04-11T11:04:07.495Z,11.10
2023-04-11T11:06:46.282Z,11.10
2023-04-11T11:09:23.191Z,11.10
2023-04-11T11:12:06.486Z,11.50
2023-04-11T11:14:34.336Z,12.00
2023-04-11T11:17:03.956Z,12.10
2023-04-11T11:19:32.205Z,11.90
2023-04-11T11:22:03.517Z,11.70
2023-04-11T11:24:32.042Z,11.60
2023-04-11T11:27:00.379Z,11.30
2023-04-11T11:29:32.501Z,11.10
2023-04-11T11:32:03.372Z,11.00
2023-04-11T11:34:33.893Z,11.00
2023-04-11T11:37:04.415Z,10.90
2023-04-11T11:39:33.830Z,10.90
2023-04-11T11:42:01.841Z,11.00
2023-04-11T11:44:31.220Z,11.20
2023-04-11T11:47:03.286Z,11.10
2023-04-11T11:49:46.284Z,11.00
2023-04-11T11:52:30.786Z,11.00
2023-04-11T11:54:58.549Z,11.10
2023-04-11T11:57:27.650Z,11.10
2023-04-11T11:59:56.121Z,11.00
2023-04-11T12:02:25.535Z,11.10
2023-04-11T12:04:59.723Z,11.50
2023-04-11T12:07:32.223Z,11.90
2023-04-11T12:10:01.515Z,12.10
2023-04-11T12:12:37.117Z,12.20
2023-04-11T12:15:11.011Z,11.80
2023-04-11T12:17:39.291Z,11.60
2023-04-11T12:20:10.620Z,11.50
2023-04-11T12:22:38.832Z,11.70
2023-04-11T12:25:08.215Z,12.00
2023-04-11T12:27:37.103Z,12.30
2023-04-11T12:30:05.559Z,12.60
2023-04-11T12:32:34.121Z,12.70
2023-04-11T12:35:02.109Z,12.40
2023-04-11T12:37:31.556Z,12.30
2023-04-11T12:39:59.426Z,12.10
2023-04-11T12:42:27.635Z,12.00
2023-04-11T12:44:55.557Z,12.00
2023-04-11T12:47:23.344Z,11.90
2023-04-11T12:49:51.418Z,11.70
2023-04-11T12:52:19.236Z,11.90
2023-04-11T12:54:48.403Z,11.90
2023-04-11T12:57:16.169Z,12.30
2023-04-11T12:59:44.104Z,12.60
2023-04-11T13:02:11.996Z,12.60
2023-04-11T13:04:40.121Z,12.60
2023-04-11T13:07:09.889Z,12.60
2023-04-11T13:09:37.689Z,12.70
2023-04-11T13:12:07.500Z,12.70
2023-04-11T13:14:36.357Z,12.80
2023-04-11T13:17:04.634Z,12.90
2023-04-11T13:19:32.422Z,12.80
2023-04-11T13:22:00.180Z,12.60
2023-04-11T13:24:27.937Z,12.40
2023-04-11T13:26:55.703Z,12.20
2023-04-11T13:29:24.831Z,12.10
2023-04-11T13:31:52.648Z,12.10
2023-04-11T13:34:20.727Z,12.10
2023-04-11T13:36:48.701Z,12.00
2023-04-11T13:39:16.624Z,12.10
2023-04-11T13:41:44.471Z,12.00
2023-04-11T13:44:12.196Z,11.90
2023-04-11T13:46:41.333Z,11.90
2023-04-11T13:49:09.135Z,11.80
2023-04-11T13:51:36.917Z,11.90
2023-04-11T13:54:04.971Z,11.70
2023-04-11T13:56:32.731Z,11.70
2023-04-11T13:59:00.534Z,11.70
2023-04-11T14:01:28.343Z,11.70
2023-04-11T14:03:57.879Z,11.80
2023-04-11T14:06:26.234Z,11.90
2023-04-11T14:08:54.003Z,11.90
2023-04-11T14:11:21.933Z,12.00
2023-04-11T14:13:50.030Z,12.10
2023-04-11T14:16:17.848Z,12.10
2023-04-11T14:18:45.764Z,11.80
2023-04-11T14:21:15.496Z,11.80
2023-04-11T14:23:43.369Z,11.80
2023-04-11T14:26:11.593Z,11.90
2023-04-11T14:28:39.331Z,12.00
2023-04-11T14:31:08.032Z,12.00
2023-04-11T14:33:36.441Z,11.90
2023-04-11T14:36:04.446Z,11.90
2023-04-11T14:38:33.575Z,12.00
2023-04-11T14:41:01.324Z,12.00
2023-04-11T14:43:29.108Z,12.00
2023-04-11T14:45:57.525Z,11.90
2023-04-11T14:48:26.429Z,11.80
2023-04-11T14:50:54.768Z,11.80
2023-04-11T14:53:22.833Z,11.70
2023-04-11T14:55:52.053Z,11.70
2023-04-11T14:58:19.848Z,11.70
2023-04-11T15:00:47.622Z,11.60
2023-04-11T15:03:15.562Z,11.60
2023-04-11T15:05:43.517Z,11.60
2023-04-11T15:08:11.265Z,11.60
2023-04-11T15:10:39.050Z,11.60
2023-04-11T15:13:09.096Z,11.80
2023-04-11T15:15:38.036Z,11.90
2023-04-11T15:18:23.676Z,12.10
2023-04-11T15:20:52.436Z,12.30
2023-04-11T15:23:20.960Z,12.30
2023-04-11T15:25:53.854Z,12.10
2023-04-11T15:28:23.442Z,12.10
2023-04-11T15:30:52.676Z,12.10
2023-04-11T15:33:21.928Z,12.00
2023-04-11T15:35:49.702Z,12.00
2023-04-11T15:38:18.294Z,11.80
2023-04-11T15:40:46.317Z,11.90
2023-04-11T15:43:14.187Z,11.90
2023-04-11T15:45:44.254Z,11.90
2023-04-11T15:48:12.826Z,11.80
2023-04-11T15:50:41.187Z,11.80
2023-04-11T15:53:09.537Z,11.60
2023-04-11T15:55:40.317Z,11.70
2023-04-11T15:58:08.250Z,11.70
2023-04-11T16:00:36.505Z,11.80
2023-04-11T16:03:08.199Z,11.80
2023-04-11T16:05:38.198Z,11.70
2023-04-11T16:08:07.618Z,11.60
2023-04-11T16:10:35.772Z,11.60
2023-04-11T16:13:04.023Z,11.50
2023-04-11T16:15:32.588Z,11.50
2023-04-11T16:18:00.733Z,11.40
2023-04-11T16:20:29.953Z,11.40
2023-04-11T16:22:57.723Z,11.30
2023-04-11T16:25:25.892Z,11.20
2023-04-11T16:27:53.866Z,11.10
2023-04-11T16:30:21.757Z,11.10
2023-04-11T16:32:49.575Z,11.10
2023-04-11T16:35:17.537Z,11.10
2023-04-11T16:37:46.723Z,11.00
2023-04-11T16:40:15.638Z,11.00
2023-04-11T16:42:43.467Z,11.00
2023-04-11T16:45:11.850Z,10.90
2023-04-11T16:47:41.044Z,10.90
2023-04-11T16:50:09.795Z,10.90
2023-04-11T16:52:37.547Z,10.90
2023-04-11T16:55:07.319Z,10.90
2023-04-11T16:57:35.404Z,10.90
2023-04-11T17:00:16.275Z,10.90
2023-04-11T17:02:44.349Z,10.90
2023-04-11T17:05:12.492Z,10.90
2023-04-11T17:07:40.516Z,10.90
2023-04-11T17:10:10.750Z,10.90
2023-04-11T17:12:38.515Z,10.80
2023-04-11T17:15:08.412Z,10.80
2023-04-11T17:17:36.720Z,10.70
2023-04-11T17:20:09.257Z,10.70
2023-04-11T17:22:39.193Z,10.60
2023-04-11T17:25:10.273Z,10.60
2023-04-11T17:27:38.147Z,10.50
2023-04-11T17:30:08.065Z,10.50
2023-04-11T17:32:38.114Z,10.40
2023-04-11T17:35:07.182Z,10.50
2023-04-11T17:37:35.766Z,10.50
2023-04-11T17:40:11.118Z,10.40
2023-04-11T17:42:40.331Z,10.40
2023-04-11T17:45:16.479Z,10.30
2023-04-11T17:47:45.963Z,10.40
2023-04-11T17:50:14.960Z,10.30
2023-04-11T17:52:44.374Z,10.30
2023-04-11T17:55:13.851Z,10.40
2023-04-11T17:57:43.911Z,10.30
2023-04-11T18:00:19.804Z,10.20
2023-04-11T18:02:49.432Z,10.20
2023-04-11T18:05:24.253Z,10.10
2023-04-11T18:07:56.281Z,10.20
2023-04-11T18:10:25.842Z,10.10
2023-04-11T18:12:57.354Z,10.10
2023-04-11T18:15:26.252Z,10.10
2023-04-11T18:17:56.842Z,10.00
2023-04-11T18:20:24.782Z,10.00
2023-04-11T18:22:55.914Z,9.90
2023-04-11T18:25:24.391Z,9.90
2023-04-11T18:27:52.198Z,9.90
2023-04-11T18:30:21.359Z,9.90
2023-04-11T18:32:51.506Z,9.90
2023-04-11T18:35:19.345Z,9.80
2023-04-11T18:37:47.352Z,9.70
2023-04-11T18:40:15.603Z,9.70
2023-04-11T18:42:46.613Z,9.70
2023-04-11T18:45:15.394Z,9.70
2023-04-11T18:47:46.160Z,9.70
2023-04-11T18:50:14.497Z,9.60
2023-04-11T18:52:43.913Z,9.60
2023-04-11T18:55:12.542Z,9.60
2023-04-11T18:57:41.170Z,9.60
2023-04-11T19:00:17.522Z,9.50
2023-04-11T19:02:50.177Z,9.50
2023-04-11T19:05:19.238Z,9.50
2023-04-11T19:07:47.261Z,9.40
2023-04-11T19:10:15.285Z,9.50
2023-04-11T19:12:43.041Z,9.40
2023-04-11T19:15:12.044Z,9.40
2023-04-11T19:17:39.949Z,9.40
2023-04-11T19:20:12.801Z,9.30
2023-04-11T19:22:41.756Z,9.30
2023-04-11T19:25:11.358Z,9.30
2023-04-11T19:27:41.266Z,9.30
2023-04-11T19:30:10.468Z,9.20
2023-04-11T19:32:40.895Z,9.20
2023-04-11T19:35:11.604Z,9.20
2023-04-11T19:37:39.627Z,9.20
2023-04-11T19:40:10.740Z,9.20
2023-04-11T19:42:39.781Z,9.10
2023-04-11T19:45:09.480Z,9.00
2023-04-11T19:47:39.022Z,9.10
2023-04-11T19:50:07.745Z,9.00
2023-04-11T19:52:36.847Z,9.00
2023-04-11T19:55:05.000Z,8.90
2023-04-11T19:57:32.967Z,8.90
2023-04-11T20:00:00.704Z,8.80
2023-04-11T20:02:28.627Z,8.80
2023-04-11T20:04:56.799Z,8.80
2023-04-11T20:07:24.597Z,8.80
2023-04-11T20:09:53.762Z,8.70
2023-04-11T20:12:22.566Z,8.70
2023-04-11T20:14:50.294Z,8.70
2023-04-11T20:17:18.029Z,8.70
2023-04-11T20:19:47.456Z,8.70
2023-04-11T20:22:18.300Z,8.60
2023-04-11T20:24:47.001Z,8.60
2023-04-11T20:27:16.604Z,8.60
2023-04-11T20:29:44.569Z,8.60
2023-04-11T20:32:12.372Z,8.50
2023-04-11T20:34:40.107Z,8.50
2023-04-11T20:37:08.918Z,8.50
2023-04-11T20:39:36.922Z,8.40
2023-04-11T20:42:05.010Z,8.40
2023-04-11T20:44:35.899Z,8.30
2023-04-11T20:47:03.709Z,8.30
2023-04-11T20:49:31.754Z,8.30
2023-04-11T20:52:00.001Z,8.20
2023-04-11T20:54:28.326Z,8.30
2023-04-11T20:56:56.702Z,8.30
2023-04-11T20:59:24.518Z,8.20
2023-04-11T21:01:54.097Z,8.20
2023-04-11T21:04:23.360Z,8.20
2023-04-11T21:06:51.497Z,8.20
2023-04-11T21:09:19.515Z,8.10
2023-04-11T21:11:47.244Z,8.10
2023-04-11T21:14:15.108Z,8.10
2023-04-11T21:16:42.883Z,8.10
2023-04-11T21:19:12.025Z,8.00
2023-04-11T21:21:40.562Z,8.00
2023-04-11T21:24:09.232Z,8.00
2023-04-11T21:26:37.606Z,8.00
2023-04-11T21:29:05.453Z,8.00
2023-04-11T21:31:33.279Z,8.00
2023-04-11T21:34:01.390Z,7.90
2023-04-11T21:36:31.555Z,7.90
2023-04-11T21:38:59.345Z,7.90
2023-04-11T21:41:27.917Z,7.80
2023-04-11T21:43:55.840Z,7.80
2023-04-11T21:46:23.736Z,7.80
2023-04-11T21:48:51.621Z,7.80
2023-04-11T21:51:19.587Z,7.80
2023-04-11T21:53:48.725Z,7.80
2023-04-11T21:56:16.510Z,7.80
2023-04-11T21:58:44.305Z,7.80
2023-04-11T22:01:12.234Z,7.80
2023-04-11T22:03:41.405Z,7.70
2023-04-11T22:06:10.890Z,7.70
2023-04-11T22:08:42.161Z,7.60
2023-04-11T22:11:14.381Z,7.60
2023-04-11T22:13:46.261Z,7.60
2023-04-11T22:16:14.834Z,7.60
2023-04-11T22:18:49.020Z,7.60
2023-04-11T22:21:19.336Z,7.60
2023-04-11T22:23:48.525Z,7.60
2023-04-11T22:26:17.648Z,7.50
2023-04-11T22:28:45.463Z,7.60
2023-04-11T22:31:13.658Z,7.50
2023-04-11T22:33:41.458Z,7.50
2023-04-11T22:36:10.530Z,7.50
2023-04-11T22:38:38.396Z,7.50
2023-04-11T22:41:06.670Z,7.50
2023-04-11T22:43:35.763Z,7.50
2023-04-11T22:46:03.544Z,7.40
2023-04-11T22:48:31.334Z,7.40
2023-04-11T22:50:59.919Z,7.40
2023-04-11T22:53:27.754Z,7.50
2023-04-11T22:55:56.341Z,7.40
2023-04-11T23:01:01.192Z,7.40
2023-04-11T23:03:29.924Z,7.40
2023-04-11T23:05:57.674Z,7.30
2023-04-11T23:08:25.456Z,7.30
2023-04-11T23:10:53.259Z,7.30
2023-04-11T23:13:21.059Z,7.30
2023-04-11T23:15:48.840Z,7.20
2023-04-11T23:18:18.588Z,7.20
2023-04-11T23:20:48.678Z,7.20
2023-04-11T23:23:16.554Z,7.20
2023-04-11T23:25:45.257Z,7.20
2023-04-11T23:28:13.130Z,7.20
2023-04-11T23:30:41.445Z,7.20
2023-04-11T23:33:09.307Z,7.10
2023-04-11T23:35:38.619Z,7.20
2023-04-11T23:38:06.663Z,7.20
2023-04-11T23:40:34.538Z,7.20
2023-04-11T23:43:02.272Z,7.10
2023-04-11T23:45:30.670Z,7.10
2023-04-11T23:47:58.461Z,7.10
2023-04-11T23:50:26.453Z,7.10
2023-04-11T23:52:55.666Z,7.10
2023-04-11T23:55:23.463Z,7.10
2023-04-11T23:57:51.522Z,7.10
